^^
Saratoga-Weather Station Historical Data
Daily Summary for January 13, 2021 Units:  Metric    English   Both
Daily Weekly Monthly Yearly Custom
  High: Low: Average:
Temperature: 18.1 °C °C 16.4 °C
Dew Point: 16.4 °C °C 15.3 °C
Humidity: 95% % 93%
Wind Speed: 17.7km/h 0km/h 4.7km/h
Wind Gust: 22.5km/h - -
Wind- - West
Pressure: 1009.8 hPa 1007.8 hPa -
Precipitation: 22.6 mm    
Historical Graphs
 
 
Tabular Data for January 13, 2021
Time Temperature Dew Point Pressure Wind Wind Speed Wind Gust Humidity Rainfall Rate (Hourly) solar
00:00 17.9 °C 16.2 °C 1008.5 hPa Calm   3.2 km/h 90% 0.0 mm 0 W/m2
00:05 17.8 °C 16.1 °C 1008.8 hPa Calm     90% 0.0 mm 0 W/m2
00:10 17.8 °C 16.1 °C 1008.8 hPa WNW 3.2 km/h 3.2 km/h 90% 0.0 mm 0 W/m2
00:15 17.8 °C 16.1 °C 1008.8 hPa West 3.2 km/h 8 km/h 90% 0.0 mm 0 W/m2
00:20 17.8 °C 16.1 °C 1008.8 hPa WNW 3.2 km/h 8 km/h 90% 0.0 mm 0 W/m2
00:25 17.9 °C 16.2 °C 1008.8 hPa West 1.4 km/h 4.8 km/h 90% 0.0 mm 0 W/m2
00:30 18 °C 16.3 °C 1008.8 hPa West 6.4 km/h 9.7 km/h 90% 0.0 mm 0 W/m2
00:35 18.1 °C 16.4 °C 1008.8 hPa WNW 3.2 km/h 9.7 km/h 90% 0.0 mm 0 W/m2
00:40 18.1 °C 16.4 °C 1009.1 hPa Calm   1.6 km/h 90% 0.0 mm 0 W/m2
00:45 18 °C 16.3 °C 1008.8 hPa WSW 1.4 km/h 8 km/h 90% 0.0 mm 0 W/m2
00:50 18 °C 16.3 °C 1008.8 hPa West 1.4 km/h 3.2 km/h 90% 0.0 mm 0 W/m2
00:55 18 °C 16.3 °C 1008.8 hPa Calm   1.6 km/h 90% 0.0 mm 0 W/m2
01:01 17.9 °C 16.2 °C 1008.8 hPa Calm     90% 0.0 mm 0 W/m2
01:06 17.9 °C 16.2 °C 1008.8 hPa Calm     90% 0.0 mm 0 W/m2
01:11 17.9 °C 16.4 °C 1008.8 hPa Calm     91% 0.0 mm 0 W/m2
01:16 17.9 °C 16.4 °C 1008.8 hPa Calm     91% 0.0 mm 0 W/m2
01:21 17.8 °C 16.3 °C 1008.8 hPa Calm     91% 0.0 mm 0 W/m2
01:26 17.7 °C 16.2 °C 1009.1 hPa Calm     91% 0.0 mm 0 W/m2
01:31 17.7 °C 16.2 °C 1009.1 hPa Calm     91% 0.0 mm 0 W/m2
01:36 17.6 °C 16.3 °C 1009.1 hPa Calm     92% 0.0 mm 0 W/m2
01:41 17.6 °C 16.3 °C 1009.1 hPa Calm     92% 0.0 mm 0 W/m2
01:46 17.5 °C 16.2 °C 1008.8 hPa Calm   3.2 km/h 92% 0.0 mm 0 W/m2
01:51 17.4 °C 16.1 °C 1008.8 hPa Calm     92% 0.0 mm 0 W/m2
01:56 17.4 °C 16.1 °C 1008.8 hPa West 1.4 km/h 1.6 km/h 92% 0.0 mm 0 W/m2
02:01 17.4 °C 16.1 °C 1008.8 hPa West 1.4 km/h 3.2 km/h 92% 0.0 mm 0 W/m2
02:06 17.4 °C 16.1 °C 1008.8 hPa Calm   1.6 km/h 92% 0.0 mm 0 W/m2
02:11 17.5 °C 16.2 °C 1008.8 hPa West 9.7 km/h 9.7 km/h 92% 0.0 mm 0 W/m2
02:16 17.6 °C 16.3 °C 1008.8 hPa West 4.7 km/h 6.4 km/h 92% 0.0 mm 0 W/m2
02:21 17.6 °C 16.3 °C 1008.8 hPa SW 4.7 km/h 6.4 km/h 92% 0.0 mm 0 W/m2
02:26 17.6 °C 16.1 °C 1008.8 hPa WNW 4.7 km/h 6.4 km/h 91% 0.0 mm 0 W/m2
02:31 17.7 °C 16.2 °C 1008.8 hPa West 4.7 km/h 12.9 km/h 91% 0.0 mm 0 W/m2
02:36 17.6 °C 16.1 °C 1008.5 hPa WNW 4.7 km/h 9.7 km/h 91% 0.0 mm 0 W/m2
02:41 17.6 °C 16.1 °C 1008.5 hPa West 11.1 km/h 12.9 km/h 91% 0.0 mm 0 W/m2
02:46 17.6 °C 16.1 °C 1008.5 hPa West 4.7 km/h 12.9 km/h 91% 0.0 mm 0 W/m2
02:51 17.6 °C 16.1 °C 1008.5 hPa WNW 1.4 km/h 9.7 km/h 91% 0.0 mm 0 W/m2
02:56 17.6 °C 16.1 °C 1008.5 hPa West 6.4 km/h 12.9 km/h 91% 0.0 mm 0 W/m2
03:01 17.5 °C 16 °C 1008.5 hPa WSW 6.4 km/h 6.4 km/h 91% 0.0 mm 0 W/m2
03:06 17.4 °C 15.9 °C 1008.5 hPa WSW 7.9 km/h 11.3 km/h 91% 0.0 mm 0 W/m2
03:11 17.4 °C 15.9 °C 1008.5 hPa SW 9.7 km/h 9.7 km/h 91% 0.0 mm 0 W/m2
03:16 17.3 °C 16 °C 1008.5 hPa WNW 6.4 km/h 11.3 km/h 92% 0.0 mm 0 W/m2
03:21 17.3 °C 16 °C 1008.5 hPa WSW 4.7 km/h 8 km/h 92% 0.0 mm 0 W/m2
03:26 17.3 °C 16 °C 1008.5 hPa WNW 6.4 km/h 12.9 km/h 92% 0.0 mm 0 W/m2
03:31 17.3 °C 16 °C 1008.5 hPa West 3.2 km/h 14.5 km/h 92% 0.0 mm 0 W/m2
03:36 17.3 °C 16 °C 1008.5 hPa WSW 4.7 km/h 6.4 km/h 92% 0.0 mm 0 W/m2
03:41 17.2 °C 15.9 °C 1008.5 hPa WNW 6.4 km/h 14.5 km/h 92% 0.0 mm 0 W/m2
03:46 17.2 °C 15.9 °C 1008.5 hPa WNW 1.4 km/h 12.9 km/h 92% 0.0 mm 0 W/m2
03:51 17.1 °C 16 °C 1008.5 hPa NW 6.4 km/h 14.5 km/h 93% 0.0 mm 0 W/m2
03:56 17 °C 15.9 °C 1008.1 hPa WSW 6.4 km/h 11.3 km/h 93% 0.0 mm 0 W/m2
04:01 16.9 °C 15.8 °C 1008.1 hPa WNW 4.7 km/h 9.7 km/h 93% 0.0 mm 0 W/m2
04:06 16.9 °C 15.8 °C 1008.1 hPa West 4.7 km/h 6.4 km/h 93% 0.0 mm 0 W/m2
04:11 16.9 °C 15.8 °C 1008.1 hPa West 4.7 km/h 12.9 km/h 93% 0.0 mm 0 W/m2
04:16 16.8 °C 15.7 °C 1008.1 hPa West 4.7 km/h 11.3 km/h 93% 0.0 mm 0 W/m2
04:21 16.8 °C 15.7 °C 1008.1 hPa WNW 9.7 km/h 12.9 km/h 93% 0.0 mm 0 W/m2
04:26 16.8 °C 15.7 °C 1008.1 hPa WSW 3.2 km/h 12.9 km/h 93% 0.0 mm 0 W/m2
04:31 16.8 °C 15.7 °C 1008.1 hPa WSW 7.9 km/h 12.9 km/h 93% 0.0 mm 0 W/m2
04:36 16.8 °C 15.7 °C 1007.8 hPa WSW 7.9 km/h 14.5 km/h 93% 0.0 mm 0 W/m2
04:41 16.8 °C 15.7 °C 1008.1 hPa West 4.7 km/h 16.1 km/h 93% 0.0 mm 0 W/m2
04:46 16.8 °C 15.7 °C 1008.1 hPa West 4.7 km/h 9.7 km/h 93% 0.0 mm 0 W/m2
04:51 16.8 °C 15.7 °C 1008.1 hPa West 13 km/h 14.5 km/h 93% 0.0 mm 0 W/m2
04:56 16.8 °C 15.7 °C 1008.5 hPa West 9.7 km/h 12.9 km/h 93% 0.0 mm 0 W/m2
05:01 16.8 °C 15.7 °C 1008.1 hPa WNW 6.4 km/h 14.5 km/h 93% 0.0 mm 0 W/m2
05:06 16.8 °C 15.7 °C 1008.1 hPa West 14.3 km/h 14.5 km/h 93% 0.0 mm 0 W/m2
05:11 16.8 °C 15.7 °C 1008.1 hPa West 13 km/h 12.9 km/h 93% 0.0 mm 0 W/m2
05:16 16.8 °C 15.7 °C 1008.1 hPa West 9.7 km/h 14.5 km/h 93% 0.0 mm 0 W/m2
05:21 16.8 °C 15.7 °C 1008.1 hPa West 6.4 km/h 11.3 km/h 93% 0.0 mm 0 W/m2
05:26 16.8 °C 15.7 °C 1008.1 hPa West 9.7 km/h 12.9 km/h 93% 0.0 mm 0 W/m2
05:31 16.8 °C 15.7 °C 1008.1 hPa West 6.4 km/h 16.1 km/h 93% 0.0 mm 0 W/m2
05:36 16.8 °C 15.7 °C 1007.8 hPa WNW 3.2 km/h 16.1 km/h 93% 0.0 mm 0 W/m2
05:41 16.8 °C 15.8 °C 1007.8 hPa WNW 13 km/h 14.5 km/h 94% 0.0 mm 0 W/m2
05:46 16.7 °C 15.7 °C 1007.8 hPa WNW 4.7 km/h 16.1 km/h 94% 0.0 mm 0 W/m2
05:51 16.7 °C 15.7 °C 1007.8 hPa WSW 6.4 km/h 12.9 km/h 94% 0.0 mm 0 W/m2
05:56 16.7 °C 15.7 °C 1008.1 hPa WNW 7.9 km/h 16.1 km/h 94% 0.0 mm 0 W/m2
06:01 16.7 °C 15.7 °C 1008.1 hPa West 4.7 km/h 11.3 km/h 94% 0.2 mm 0 W/m2
06:06 16.6 °C 15.6 °C 1007.8 hPa WSW 7.9 km/h 16.1 km/h 94% 0.5 mm 0 W/m2
06:11 16.6 °C 15.6 °C 1007.8 hPa WNW 4.7 km/h 17.7 km/h 94% 0.5 mm 0 W/m2
06:16 16.5 °C 15.5 °C 1007.8 hPa West 3.2 km/h 8 km/h 94% 0.8 mm 0 W/m2
06:21 16.5 °C 15.5 °C 1008.1 hPa West 9.7 km/h 17.7 km/h 94% 0.8 mm 0 W/m2
06:26 16.4 °C 15.4 °C 1008.1 hPa WSW 11.1 km/h 11.3 km/h 94% 1.0 mm 0 W/m2
06:31 16.4 °C 15.6 °C 1008.1 hPa NW 3.2 km/h 12.9 km/h 95% 1.5 mm 5 W/m2
06:36 16.4 °C 15.6 °C 1008.1 hPa WNW 6.4 km/h 11.3 km/h 95% 1.5 mm 5 W/m2
06:41 16.4 °C 15.6 °C 1008.1 hPa WNW 7.9 km/h 8 km/h 95% 2.0 mm 5 W/m2
06:46 16.3 °C 15.5 °C 1008.1 hPa WNW 6.4 km/h 9.7 km/h 95% 2.3 mm 5 W/m2
06:51 16.3 °C 15.5 °C 1007.8 hPa West 3.2 km/h 14.5 km/h 95% 2.5 mm 9 W/m2
06:56 16.3 °C 15.5 °C 1007.8 hPa West 4.7 km/h 12.9 km/h 95% 2.8 mm 12 W/m2
07:01 16.3 °C 15.5 °C 1007.8 hPa West 3.2 km/h 14.5 km/h 95% 2.5 mm 21 W/m2
07:06 16.3 °C 15.5 °C 1007.8 hPa WSW 4.7 km/h 12.9 km/h 95% 2.5 mm 26 W/m2
07:11 16.3 °C 15.5 °C 1007.8 hPa West 4.7 km/h 9.7 km/h 95% 2.3 mm 37 W/m2
07:16 16.4 °C 15.6 °C 1007.8 hPa West 4.7 km/h 9.7 km/h 95% 2.3 mm 62 W/m2
07:21 16.4 °C 15.6 °C 1007.8 hPa WNW 3.2 km/h 14.5 km/h 95% 2.3 mm 74 W/m2
07:26 16.4 °C 15.6 °C 1007.8 hPa WNW 3.2 km/h 6.4 km/h 95% 2.0 mm 90 W/m2
07:31 16.6 °C 15.8 °C 1007.8 hPa WNW 3.2 km/h 4.8 km/h 95% 1.5 mm 77 W/m2
07:36 16.6 °C 15.8 °C 1007.8 hPa WSW 6.4 km/h 9.7 km/h 95% 1.5 mm 56 W/m2
07:42 16.6 °C 15.8 °C 1007.8 hPa West 4.7 km/h 14.5 km/h 95% 1.0 mm 51 W/m2
07:47 16.6 °C 15.8 °C 1007.8 hPa West 6.4 km/h 11.3 km/h 95% 0.5 mm 49 W/m2
07:52 16.6 °C 15.8 °C 1007.8 hPa WNW 4.7 km/h 11.3 km/h 95% 0.5 mm 33 W/m2
07:57 16.6 °C 15.8 °C 1007.8 hPa WSW 4.7 km/h 9.7 km/h 95% 0.2 mm 26 W/m2
08:02 16.6 °C 15.8 °C 1007.8 hPa WSW 4.7 km/h 12.9 km/h 95% 0.2 mm 23 W/m2
08:07 16.6 °C 15.8 °C 1007.8 hPa WNW 6.4 km/h 6.4 km/h 95% 0.0 mm 23 W/m2
08:12 16.6 °C 15.8 °C 1007.8 hPa WNW 11.1 km/h 11.3 km/h 95% 0.0 mm 25 W/m2
08:17 16.6 °C 15.8 °C 1007.8 hPa West 3.2 km/h 14.5 km/h 95% 0.0 mm 28 W/m2
08:22 16.6 °C 15.8 °C 1007.8 hPa West 1.4 km/h 9.7 km/h 95% 0.2 mm 37 W/m2
08:27 16.6 °C 15.8 °C 1007.8 hPa WNW 6.4 km/h 11.3 km/h 95% 0.2 mm 39 W/m2
08:32 16.6 °C 15.8 °C 1008.1 hPa WNW 4.7 km/h 9.7 km/h 95% 0.2 mm 39 W/m2
08:37 16.6 °C 15.8 °C 1007.8 hPa NW 6.4 km/h 9.7 km/h 95% 0.2 mm 46 W/m2
08:42 16.6 °C 15.8 °C 1008.1 hPa West 3.2 km/h 4.8 km/h 95% 0.2 mm 42 W/m2
08:47 16.7 °C 15.9 °C 1008.1 hPa West 6.4 km/h 14.5 km/h 95% 0.2 mm 37 W/m2
08:52 16.6 °C 15.6 °C 1008.1 hPa WNW 3.2 km/h 11.3 km/h 94% 0.2 mm 39 W/m2
08:57 16.6 °C 15.6 °C 1008.1 hPa West 9.7 km/h 14.5 km/h 94% 0.2 mm 44 W/m2
09:02 16.6 °C 15.6 °C 1008.1 hPa WNW 7.9 km/h 11.3 km/h 94% 0.2 mm 46 W/m2
09:07 16.6 °C 15.6 °C 1008.1 hPa WNW 4.7 km/h 9.7 km/h 94% 0.2 mm 46 W/m2
09:12 16.6 °C 15.6 °C 1008.1 hPa WNW 4.7 km/h 6.4 km/h 94% 0.2 mm 47 W/m2
09:17 16.5 °C 15.5 °C 1008.1 hPa NW 1.4 km/h 8 km/h 94% 0.2 mm 46 W/m2
09:22 16.5 °C 15.5 °C 1008.1 hPa West 6.4 km/h 8 km/h 94% 0.2 mm 37 W/m2
09:27 16.5 °C 15.7 °C 1008.1 hPa West 4.7 km/h 9.7 km/h 95% 0.2 mm 37 W/m2
09:32 16.4 °C 15.6 °C 1008.1 hPa West 9.7 km/h 9.7 km/h 95% 0.2 mm 46 W/m2
09:37 16.4 °C 15.6 °C 1008.1 hPa West 4.7 km/h 6.4 km/h 95% 0.2 mm 53 W/m2
09:42 16.4 °C 15.6 °C 1008.1 hPa WNW 4.7 km/h 9.7 km/h 95% 0.2 mm 54 W/m2
09:47 16.4 °C 15.6 °C 1008.1 hPa NW 4.7 km/h 11.3 km/h 95% 0.2 mm 53 W/m2
09:52 16.4 °C 15.6 °C 1008.1 hPa West 4.7 km/h 11.3 km/h 95% 0.2 mm 53 W/m2
09:57 16.4 °C 15.6 °C 1008.1 hPa NW 6.4 km/h 11.3 km/h 95% 0.2 mm 53 W/m2
10:02 16.4 °C 15.6 °C 1008.1 hPa WNW 4.7 km/h 9.7 km/h 95% 0.2 mm 53 W/m2
10:07 °C °C 1008.1 hPa WNW 6.4 km/h 12.9 km/h % 0.2 mm W/m2
10:12 16.4 °C 15.6 °C 1008.1 hPa West 4.7 km/h 4.8 km/h 95% 0.8 mm 40 W/m2
10:17 16.4 °C 15.6 °C 1008.1 hPa WNW 6.4 km/h 12.9 km/h 95% 0.8 mm 53 W/m2
10:22 16.4 °C 15.6 °C 1008.1 hPa West 3.2 km/h 11.3 km/h 95% 0.5 mm 54 W/m2
10:27 16.4 °C 15.4 °C 1008.1 hPa WSW 7.9 km/h 12.9 km/h 94% 0.8 mm 46 W/m2
10:32 16.4 °C 15.4 °C 1008.1 hPa WNW 13 km/h 14.5 km/h 94% 1.0 mm 53 W/m2
10:37 16.4 °C 15.4 °C 1008.1 hPa West 3.2 km/h 11.3 km/h 94% 1.3 mm 70 W/m2
10:42 16.3 °C 15.3 °C 1008.1 hPa West 6.4 km/h 11.3 km/h 94% 1.5 mm 60 W/m2
10:47 16.3 °C 15.3 °C 1008.1 hPa WSW 4.7 km/h 12.9 km/h 94% 1.5 mm 54 W/m2
10:52 16.3 °C 15.3 °C 1008.1 hPa WNW 4.7 km/h 14.5 km/h 94% 1.5 mm 79 W/m2
10:57 16.3 °C 15.3 °C 1008.1 hPa West 4.7 km/h 12.9 km/h 94% 1.8 mm 79 W/m2
11:02 16.3 °C 15.3 °C 1008.1 hPa West 4.7 km/h 8 km/h 94% 1.8 mm 70 W/m2
11:07 16.3 °C 15.5 °C 1008.1 hPa NW 4.7 km/h 9.7 km/h 95% 2.0 mm 76 W/m2
11:12 16.3 °C 15.5 °C 1008.1 hPa West 3.2 km/h 11.3 km/h 95% 1.5 mm 67 W/m2
11:17 16.3 °C 15.5 °C 1008.1 hPa WNW 6.4 km/h 8 km/h 95% 1.5 mm 72 W/m2
11:22 16.3 °C 15.3 °C 1008.1 hPa NW 4.7 km/h 12.9 km/h 94% 2.0 mm 69 W/m2
11:27 16.3 °C 15.3 °C 1008.5 hPa NW 3.2 km/h 9.7 km/h 94% 2.3 mm 65 W/m2
11:32 16.3 °C 15.3 °C 1008.5 hPa West 3.2 km/h 8 km/h 94% 2.3 mm 67 W/m2
11:37 16.3 °C 15.5 °C 1008.5 hPa WNW 3.2 km/h 6.4 km/h 95% 2.3 mm 58 W/m2
11:42 16.3 °C 15.3 °C 1008.5 hPa WNW 3.2 km/h 6.4 km/h 94% 2.5 mm 56 W/m2
11:47 16.3 °C 15.3 °C 1008.5 hPa WNW 3.2 km/h 11.3 km/h 94% 2.5 mm 60 W/m2
11:52 16.3 °C 15.3 °C 1008.5 hPa SW 3.2 km/h 16.1 km/h 94% 2.8 mm 67 W/m2
11:57 16.3 °C 15.3 °C 1008.5 hPa WSW 4.7 km/h 9.7 km/h 94% 2.8 mm 81 W/m2
12:02 16.3 °C 15.3 °C 1008.1 hPa WNW 3.2 km/h 9.7 km/h 94% 3.0 mm 95 W/m2
12:07 16.3 °C 15.3 °C 1008.1 hPa WNW 6.4 km/h 12.9 km/h 94% 3.3 mm 109 W/m2
12:12 16.3 °C 15.3 °C 1008.1 hPa WNW 13 km/h 14.5 km/h 94% 3.6 mm 125 W/m2
12:17 16.3 °C 15.3 °C 1008.1 hPa WNW 4.7 km/h 12.9 km/h 94% 3.6 mm 148 W/m2
12:22 16.4 °C 15.6 °C 1008.1 hPa WNW 11.1 km/h 12.9 km/h 95% 3.6 mm 174 W/m2
12:27 16.4 °C 15.6 °C 1008.1 hPa NW 3.2 km/h 19.3 km/h 95% 3.3 mm 174 W/m2
12:32 16.4 °C 15.6 °C 1008.1 hPa WNW 13 km/h 19.3 km/h 95% 3.3 mm 179 W/m2
12:37 16.4 °C 15.6 °C 1008.5 hPa West 9.7 km/h 12.9 km/h 95% 3.3 mm 142 W/m2
12:42 16.4 °C 15.4 °C 1008.5 hPa NW 4.7 km/h 19.3 km/h 94% 3.0 mm 113 W/m2
12:47 16.4 °C 15.4 °C 1008.5 hPa WNW 13 km/h 12.9 km/h 94% 3.0 mm 88 W/m2
12:52 16.3 °C 15.3 °C 1008.5 hPa WNW 6.4 km/h 17.7 km/h 94% 3.0 mm 107 W/m2
12:57 16.3 °C 15.3 °C 1008.5 hPa West 9.7 km/h 14.5 km/h 94% 3.0 mm 139 W/m2
13:02 16.3 °C 15.3 °C 1008.5 hPa WNW 4.7 km/h 14.5 km/h 94% 3.3 mm 158 W/m2
13:07 16.4 °C 15.4 °C 1008.5 hPa WNW 9.7 km/h 19.3 km/h 94% 3.0 mm 162 W/m2
13:12 16.4 °C 15.4 °C 1008.5 hPa WNW 7.9 km/h 19.3 km/h 94% 2.8 mm 149 W/m2
13:17 16.4 °C 15.6 °C 1008.5 hPa West 4.7 km/h 16.1 km/h 95% 2.8 mm 142 W/m2
13:22 16.4 °C 15.6 °C 1008.5 hPa WNW 11.1 km/h 14.5 km/h 95% 2.5 mm 141 W/m2
13:27 16.4 °C 15.6 °C 1008.5 hPa NNW 7.9 km/h 16.1 km/h 95% 2.5 mm 128 W/m2
13:32 16.4 °C 15.4 °C 1008.5 hPa NW 6.4 km/h 11.3 km/h 94% 2.8 mm 130 W/m2
13:37 16.5 °C 15.7 °C 1008.5 hPa WSW 6.4 km/h 12.9 km/h 95% 2.8 mm 135 W/m2
13:42 16.5 °C 15.7 °C 1008.5 hPa WNW 14.3 km/h 14.5 km/h 95% 2.8 mm 123 W/m2
13:47 16.5 °C 15.5 °C 1008.5 hPa WNW 6.4 km/h 12.9 km/h 94% 2.8 mm 113 W/m2
13:52 16.4 °C 15.4 °C 1008.5 hPa NW 7.9 km/h 17.7 km/h 94% 2.8 mm 107 W/m2
13:57 16.4 °C 15.4 °C 1008.5 hPa West 4.7 km/h 11.3 km/h 94% 2.8 mm 104 W/m2
14:02 16.3 °C 15.3 °C 1008.5 hPa NW 4.7 km/h 11.3 km/h 94% 2.5 mm 95 W/m2
14:07 16.3 °C 15.3 °C 1008.5 hPa West 3.2 km/h 12.9 km/h 94% 2.5 mm 90 W/m2
14:12 16.3 °C 15.3 °C 1008.5 hPa WSW 4.7 km/h 11.3 km/h 94% 2.3 mm 84 W/m2
14:17 16.3 °C 15.3 °C 1008.5 hPa NNW 4.7 km/h 11.3 km/h 94% 2.3 mm 79 W/m2
14:22 16.3 °C 15.3 °C 1008.5 hPa WNW 11.1 km/h 16.1 km/h 94% 2.8 mm 77 W/m2
14:27 16.2 °C 15.2 °C 1008.8 hPa WNW 4.7 km/h 11.3 km/h 94% 2.8 mm 79 W/m2
14:32 16.2 °C 15.2 °C 1008.8 hPa NW 1.4 km/h 11.3 km/h 94% 2.8 mm 63 W/m2
14:37 16.2 °C 15.2 °C 1008.5 hPa NW 4.7 km/h 14.5 km/h 94% 3.0 mm 54 W/m2
14:42 16.2 °C 15.2 °C 1008.8 hPa West 3.2 km/h 8 km/h 94% 3.3 mm 62 W/m2
14:47 16.1 °C 15.1 °C 1008.8 hPa WNW 7.9 km/h 16.1 km/h 94% 3.6 mm 76 W/m2
14:52 16.1 °C 15.1 °C 1008.8 hPa WSW 11.1 km/h 11.3 km/h 94% 3.8 mm 84 W/m2
14:57 16.1 °C 15.1 °C 1008.5 hPa SSW 4.7 km/h 16.1 km/h 94% 3.8 mm 90 W/m2
15:02 16.1 °C 15.1 °C 1008.5 hPa WNW 7.9 km/h 16.1 km/h 94% 4.1 mm 91 W/m2
15:08 16.1 °C 15.1 °C 1008.5 hPa NW 17.7 km/h 17.7 km/h 94% 4.1 mm 83 W/m2
15:13 16 °C 15 °C 1008.5 hPa West 9.7 km/h 14.5 km/h 94% 4.3 mm 79 W/m2
15:18 16 °C 15 °C 1008.8 hPa WNW 6.4 km/h 17.7 km/h 94% 4.1 mm 76 W/m2
15:23 16 °C 15 °C 1008.8 hPa West 4.7 km/h 14.5 km/h 94% 3.8 mm 58 W/m2
15:28 16 °C 15 °C 1009.1 hPa NNW 6.4 km/h 11.3 km/h 94% 4.1 mm 54 W/m2
15:33 16 °C 15 °C 1009.1 hPa NW 7.9 km/h 22.5 km/h 94% 3.8 mm 67 W/m2
15:38 15.9 °C 14.9 °C 1008.8 hPa NW 4.7 km/h 16.1 km/h 94% 4.1 mm 77 W/m2
15:43 15.9 °C 14.9 °C 1008.8 hPa WSW 7.9 km/h 12.9 km/h 94% 4.1 mm 77 W/m2
15:48 15.9 °C 14.9 °C 1008.8 hPa WNW 7.9 km/h 16.1 km/h 94% 3.8 mm 81 W/m2
15:53 15.9 °C 14.9 °C 1008.8 hPa WNW 6.4 km/h 14.5 km/h 94% 3.8 mm 83 W/m2
15:58 15.9 °C 15.1 °C 1008.8 hPa WSW 4.7 km/h 16.1 km/h 95% 3.8 mm 86 W/m2
16:03 15.9 °C 14.9 °C 1008.8 hPa SW 6.4 km/h 20.9 km/h 94% 3.6 mm 95 W/m2
16:08 16 °C 15 °C 1008.8 hPa NW 3.2 km/h 12.9 km/h 94% 3.3 mm 102 W/m2
16:13 16.1 °C 15.1 °C 1008.8 hPa NW 3.2 km/h 16.1 km/h 94% 3.3 mm 102 W/m2
16:18 16.1 °C 15.1 °C 1008.5 hPa Calm   12.9 km/h 94% 3.3 mm 100 W/m2
16:23 16.1 °C 15.1 °C 1008.5 hPa West 9.7 km/h 12.9 km/h 94% 3.0 mm 97 W/m2
16:28 16.1 °C 15.1 °C 1008.5 hPa West 9.7 km/h 11.3 km/h 94% 2.8 mm 111 W/m2
16:33 16.1 °C 15.1 °C 1008.5 hPa NW 11.1 km/h 19.3 km/h 94% 2.5 mm 134 W/m2
16:38 16.2 °C 15.2 °C 1008.1 hPa West 9.7 km/h 14.5 km/h 94% 1.8 mm 163 W/m2
16:43 16.2 °C 15.2 °C 1008.1 hPa WSW 14.3 km/h 16.1 km/h 94% 1.5 mm 183 W/m2
16:48 16.2 °C 15.2 °C 1007.8 hPa WNW 11.1 km/h 12.9 km/h 94% 1.3 mm 195 W/m2
16:53 16.2 °C 15.2 °C 1007.8 hPa West 6.4 km/h 20.9 km/h 94% 1.0 mm 199 W/m2
16:58 16.2 °C 15.2 °C 1008.5 hPa West 1.4 km/h 16.1 km/h 94% 1.0 mm 211 W/m2
17:03 16.3 °C 15.5 °C 1008.5 hPa SE 1.4 km/h 17.7 km/h 95% 0.8 mm 142 W/m2
17:08 16.4 °C 15.6 °C 1008.8 hPa NW 1.4 km/h 4.8 km/h 95% 0.8 mm 100 W/m2
17:13 16.3 °C 15.3 °C 1008.8 hPa West 3.2 km/h 9.7 km/h 94% 0.5 mm 53 W/m2
17:18 16.3 °C 15.3 °C 1009.1 hPa WNW 1.4 km/h 1.6 km/h 94% 0.5 mm 46 W/m2
17:23 16.3 °C 15.3 °C 1009.1 hPa West 4.7 km/h 6.4 km/h 94% 0.5 mm 46 W/m2
17:28 16.2 °C 15.2 °C 1009.1 hPa North 6.4 km/h 8 km/h 94% 0.5 mm 46 W/m2
17:33 16.1 °C 15.1 °C 1009.1 hPa NW 1.4 km/h 1.6 km/h 94% 0.5 mm 44 W/m2
17:38 16.1 °C 15.1 °C 1009.1 hPa NW 4.7 km/h 12.9 km/h 94% 0.5 mm 39 W/m2
17:43 16 °C 15 °C 1009.1 hPa NW 4.7 km/h 9.7 km/h 94% 0.5 mm 44 W/m2
17:48 15.9 °C 14.9 °C 1008.8 hPa NW 4.7 km/h 12.9 km/h 94% 0.5 mm 67 W/m2
17:53 15.8 °C 14.8 °C 1008.8 hPa West 1.4 km/h 9.7 km/h 94% 0.2 mm 139 W/m2
17:58 15.8 °C 14.8 °C 1009.1 hPa WNW 4.7 km/h 11.3 km/h 94% 0.2 mm 91 W/m2
18:03 15.9 °C 14.9 °C 1008.8 hPa West 3.2 km/h 4.8 km/h 94% 0.2 mm 111 W/m2
18:08 15.9 °C 14.9 °C 1008.8 hPa WSW 1.4 km/h 8 km/h 94% 0.2 mm 83 W/m2
18:13 15.9 °C 14.9 °C 1008.8 hPa NW 4.7 km/h 11.3 km/h 94% 0.2 mm 104 W/m2
18:18 15.9 °C 14.9 °C 1008.8 hPa Calm   6.4 km/h 94% 0.2 mm 81 W/m2
18:23 16 °C 14.9 °C 1008.8 hPa WNW 3.2 km/h 6.4 km/h 93% 0.0 mm 90 W/m2
18:28 16 °C 14.9 °C 1008.8 hPa WNW 4.7 km/h 11.3 km/h 93% 0.0 mm 70 W/m2
18:33 16 °C 14.9 °C 1008.8 hPa North 1.4 km/h 3.2 km/h 93% 0.0 mm 69 W/m2
18:38 16.1 °C 15.1 °C 1008.8 hPa NNW 1.4 km/h 6.4 km/h 94% 0.0 mm 51 W/m2
18:43 16.1 °C 15 °C 1009.1 hPa NW 3.2 km/h 11.3 km/h 93% 0.0 mm 56 W/m2
18:48 16.1 °C 15.1 °C 1008.8 hPa WNW 3.2 km/h 6.4 km/h 94% 0.0 mm 60 W/m2
18:53 16.1 °C 15.1 °C 1008.8 hPa Calm   11.3 km/h 94% 0.0 mm 51 W/m2
18:58 16.1 °C 15.1 °C 1008.8 hPa NW 1.4 km/h 3.2 km/h 94% 0.0 mm 39 W/m2
19:03 16.1 °C 15.1 °C 1009.1 hPa NNE 4.7 km/h 8 km/h 94% 0.0 mm 33 W/m2
19:08 16.1 °C 15 °C 1009.1 hPa WNW 3.2 km/h 8 km/h 93% 0.0 mm 30 W/m2
19:13 16 °C 15 °C 1009.1 hPa Calm   3.2 km/h 94% 0.0 mm 30 W/m2
19:18 15.9 °C 14.9 °C 1009.1 hPa NW 1.4 km/h 4.8 km/h 94% 0.0 mm 35 W/m2
19:23 15.8 °C 14.8 °C 1009.1 hPa West 4.7 km/h 17.7 km/h 94% 0.0 mm 37 W/m2
19:28 15.8 °C 14.8 °C 1009.1 hPa Calm   9.7 km/h 94% 0.0 mm 26 W/m2
19:33 15.8 °C 14.8 °C 1009.5 hPa Calm   14.5 km/h 94% 0.0 mm 21 W/m2
19:38 15.7 °C 14.7 °C 1009.5 hPa NNW 1.4 km/h 3.2 km/h 94% 0.0 mm 19 W/m2
19:43 15.7 °C 14.7 °C 1009.5 hPa NNE 1.4 km/h 3.2 km/h 94% 0.0 mm 30 W/m2
19:48 15.7 °C 14.7 °C 1009.5 hPa NNW 7.9 km/h 8 km/h 94% 0.0 mm 33 W/m2
19:53 15.7 °C 14.7 °C 1009.5 hPa ENE 3.2 km/h 6.4 km/h 94% 0.0 mm 32 W/m2
19:58 15.6 °C 14.6 °C 1009.8 hPa ENE 1.4 km/h 3.2 km/h 94% 0.0 mm 23 W/m2
20:03 15.7 °C 14.7 °C 1009.8 hPa North 3.2 km/h 3.2 km/h 94% 0.0 mm 19 W/m2
20:08 15.6 °C 14.6 °C 1009.8 hPa Calm     94% 0.0 mm 16 W/m2
20:14 15.6 °C 14.6 °C 1009.8 hPa WNW 6.4 km/h 11.3 km/h 94% 0.0 mm 16 W/m2
20:19 15.6 °C 14.6 °C 1009.8 hPa Calm   6.4 km/h 94% 0.0 mm 14 W/m2
20:24 15.7 °C 14.7 °C 1009.5 hPa NNW 3.2 km/h 11.3 km/h 94% 0.0 mm 18 W/m2
20:29 15.7 °C 14.7 °C 1009.1 hPa Calm   1.6 km/h 94% 0.0 mm 18 W/m2
20:34 15.7 °C 14.7 °C 1009.1 hPa WNW 1.4 km/h 4.8 km/h 94% 0.0 mm 21 W/m2
20:39 15.7 °C 14.7 °C 1009.1 hPa Calm   3.2 km/h 94% 0.0 mm 21 W/m2
20:44 15.7 °C 14.7 °C 1009.1 hPa Calm   4.8 km/h 94% 0.0 mm 19 W/m2
20:49 15.7 °C 14.7 °C 1009.1 hPa Calm   11.3 km/h 94% 0.0 mm 14 W/m2
20:54 15.7 °C 14.7 °C 1009.1 hPa NW 1.4 km/h 3.2 km/h 94% 0.0 mm 11 W/m2
20:59 15.7 °C 14.7 °C 1009.1 hPa East 1.4 km/h 11.3 km/h 94% 0.0 mm 5 W/m2
21:04 15.7 °C 14.7 °C 1009.1 hPa NNW 1.4 km/h 4.8 km/h 94% 0.0 mm 0 W/m2
21:09 15.7 °C 14.7 °C 1009.1 hPa Calm   3.2 km/h 94% 0.0 mm 5 W/m2
21:14 15.7 °C 14.7 °C 1009.1 hPa NNE 1.4 km/h 1.6 km/h 94% 0.0 mm 0 W/m2
21:19 15.7 °C 14.7 °C 1009.1 hPa ESE 1.4 km/h 6.4 km/h 94% 0.0 mm 0 W/m2
21:24 15.7 °C 14.7 °C 1009.1 hPa East 4.7 km/h 6.4 km/h 94% 0.0 mm 0 W/m2
21:29 15.7 °C 14.7 °C 1009.5 hPa Calm   3.2 km/h 94% 0.0 mm 0 W/m2
21:34 15.7 °C 14.7 °C 1009.5 hPa West 3.2 km/h 6.4 km/h 94% 0.0 mm 0 W/m2
21:39 15.7 °C 14.7 °C 1009.5 hPa North 1.4 km/h 3.2 km/h 94% 0.0 mm 0 W/m2
21:44 15.7 °C 14.7 °C 1009.5 hPa Calm     94% 0.0 mm 0 W/m2
21:49 15.7 °C 14.7 °C 1009.5 hPa WNW 7.9 km/h 8 km/h 94% 0.0 mm 0 W/m2
21:54 15.7 °C 14.7 °C 1009.5 hPa WNW 1.4 km/h 4.8 km/h 94% 0.0 mm 0 W/m2
21:59 15.7 °C 14.7 °C 1009.5 hPa NW 11.3 km/h 11.3 km/h 94% 0.0 mm 0 W/m2
22:04 15.7 °C 14.7 °C 1009.5 hPa North 1.4 km/h 6.4 km/h 94% 0.0 mm 0 W/m2
22:09 15.7 °C 14.7 °C 1009.8 hPa NNW 3.2 km/h 3.2 km/h 94% 0.0 mm 0 W/m2
22:14 15.7 °C 14.7 °C 1009.8 hPa Calm   6.4 km/h 94% 0.0 mm 0 W/m2
22:19 15.7 °C 14.7 °C 1009.8 hPa Calm   1.6 km/h 94% 0.0 mm 0 W/m2
22:24 15.7 °C 14.7 °C 1009.8 hPa NE 1.4 km/h 1.6 km/h 94% 0.0 mm 0 W/m2
22:29 15.7 °C 14.7 °C 1009.5 hPa NNE 1.4 km/h 3.2 km/h 94% 0.0 mm 0 W/m2
22:34 15.7 °C 14.7 °C 1009.5 hPa NW 3.2 km/h 4.8 km/h 94% 0.0 mm 0 W/m2
22:39 15.7 °C 14.7 °C 1009.8 hPa NW 1.4 km/h 3.2 km/h 94% 0.0 mm 0 W/m2
22:44 15.7 °C 14.7 °C 1009.8 hPa North 4.7 km/h 6.4 km/h 94% 0.0 mm 0 W/m2
22:49 15.7 °C 14.7 °C 1009.5 hPa WNW 1.4 km/h 3.2 km/h 94% 0.0 mm 0 W/m2
22:54 15.7 °C 14.7 °C 1009.5 hPa NNW 3.2 km/h 6.4 km/h 94% 0.0 mm 0 W/m2
22:59 15.7 °C 14.7 °C 1009.5 hPa NW 3.2 km/h 4.8 km/h 94% 0.0 mm 0 W/m2
23:04 15.7 °C 14.7 °C 1009.5 hPa WNW 6.4 km/h 9.7 km/h 94% 0.0 mm 0 W/m2
23:09 15.7 °C 14.7 °C 1009.1 hPa NW 1.4 km/h 6.4 km/h 94% 0.0 mm 0 W/m2
23:14 15.7 °C 14.7 °C 1009.1 hPa NW 4.7 km/h 11.3 km/h 94% 0.0 mm 0 W/m2
23:19 15.6 °C 14.6 °C 1009.1 hPa NW 4.7 km/h 8 km/h 94% 0.0 mm 0 W/m2
23:24 15.6 °C 14.6 °C 1009.1 hPa WNW 3.2 km/h 11.3 km/h 94% 0.0 mm 0 W/m2
23:29 15.6 °C 14.6 °C 1009.1 hPa WNW 1.4 km/h 9.7 km/h 94% 0.0 mm 0 W/m2
23:34 15.6 °C 14.6 °C 1009.1 hPa Calm   6.4 km/h 94% 0.0 mm 0 W/m2
23:39 15.6 °C 14.6 °C 1009.1 hPa Calm   6.4 km/h 94% 0.0 mm 0 W/m2
23:44 15.5 °C 14.5 °C 1009.1 hPa Calm   4.8 km/h 94% 0.0 mm 0 W/m2
23:49 15.5 °C 14.7 °C 1009.1 hPa West 3.2 km/h 4.8 km/h 95% 0.0 mm 0 W/m2
23:54 15.5 °C 14.7 °C 1009.1 hPa NW 3.2 km/h 6.4 km/h 95% 0.0 mm 0 W/m2
23:59 15.5 °C 14.7 °C 1009.1 hPa WNW 3.2 km/h 6.4 km/h 95% 0.0 mm 0 W/m2
Juneau County Weather
Compliments of Weather Underground - 4 mb